ORD weather

Chicago O'Hare International Airport
Chicago, Illinois, United States

Public forecast

Using degrees Fahrenheit for public forecast. Weather courtesy of forecast.io.

METAR (pilot weather report)

Retrieved 2018/01/20 23:51 UTC (1 hour ago):

KORD 202351Z 19004KT 10SM BKN021 04/01 A2996 RMK AO2 SLP152 T00390006 10072 20039 51019

TAF (pilot weather forecast)

Forecast is more than 12 hours old.

Retrieved 2018/01/20 00:33 UTC (1 day ago):

TAF KORD 202331Z 2100/2206 20005KT P6SM OVC018 FM210600 VRB03KT 5SM BR OVC009 FM211200 15002KT 3SM -DZ BR OVC007 FM211400 14003KT 1SM -DZ BR OVC005 TEMPO 2115/2118 3/4SM -DZ BR OVC003 FM211900 11004KT 1 1/2SM -DZ BR OVC003